JBU2848 KLAX-KSAN
Flight info
| Callsign | JBU2848 |
|---|---|
| Flight time | 0h 31m |
| Altitude | 13000 |
| Route | KLAX LAXX1 MZB KSAN |
| Aircraft | A21N/M-S/L |
Departure
| Time | 2026-05-05 01:29 |
|---|---|
| Airport | Los Angeles International Airport (KLAX) |
Arrival
| Time | 2026-05-05 02:00 |
|---|---|
| Airport | San Diego International Airport (KSAN) |
| Time | Latitude | Longitude | Altitude | Speed | Heading |
|---|---|---|---|---|---|
| 2026-05-05 01:20 | 33.94674 | -118.40329 | 129 ft | 0 kts | 263° |
| 2026-05-05 01:22 | 33.94675 | -118.40321 | 129 ft | 2 kts | 263° |
| 2026-05-05 01:22 | 33.94677 | -118.40302 | 123 ft | 2 kts | 263° |
| 2026-05-05 01:23 | 33.94679 | -118.40283 | 126 ft | 2 kts | 272° |
| 2026-05-05 01:23 | 33.94673 | -118.40266 | 123 ft | 2 kts | 329° |
| 2026-05-05 01:23 | 33.94666 | -118.40262 | 123 ft | 0 kts | 354° |
| 2026-05-05 01:25 | 33.94669 | -118.40262 | 123 ft | 3 kts | 1° |
| 2026-05-05 01:26 | 33.94706 | -118.40253 | 126 ft | 9 kts | 357° |
| 2026-05-05 01:26 | 33.94792 | -118.40267 | 126 ft | 16 kts | 346° |
| 2026-05-05 01:26 | 33.94891 | -118.40262 | 125 ft | 13 kts | 50° |
| 2026-05-05 01:26 | 33.94909 | -118.40164 | 128 ft | 15 kts | 82° |
| 2026-05-05 01:27 | 33.94926 | -118.40004 | 129 ft | 20 kts | 82° |
| 2026-05-05 01:27 | 33.94947 | -118.39930 | 127 ft | 0 kts | 44° |
| 2026-05-05 01:28 | 33.94953 | -118.39925 | 127 ft | 4 kts | 35° |
| 2026-05-05 01:28 | 33.95003 | -118.39911 | 126 ft | 8 kts | 348° |
| 2026-05-05 01:28 | 33.95041 | -118.39939 | 124 ft | 4 kts | 281° |
| 2026-05-05 01:28 | 33.95037 | -118.39999 | 127 ft | 14 kts | 263° |
| 2026-05-05 01:29 | 33.94986 | -118.40502 | 127 ft | 111 kts | 263° |
| 2026-05-05 01:29 | 33.94852 | -118.41800 | 144 ft | 192 kts | 263° |
| 2026-05-05 01:29 | 33.94689 | -118.43495 | 809 ft | 216 kts | 262° |
| 2026-05-05 01:29 | 33.94486 | -118.45459 | 1321 ft | 257 kts | 262° |
| 2026-05-05 01:30 | 33.94250 | -118.47549 | 1661 ft | 246 kts | 261° |
| 2026-05-05 01:30 | 33.94046 | -118.49502 | 1905 ft | 222 kts | 262° |
| 2026-05-05 01:30 | 33.93879 | -118.51251 | 2293 ft | 200 kts | 262° |
| 2026-05-05 01:30 | 33.93734 | -118.52879 | 2635 ft | 192 kts | 263° |
| 2026-05-05 01:31 | 33.93513 | -118.54430 | 2978 ft | 184 kts | 249° |
| 2026-05-05 01:31 | 33.92806 | -118.55703 | 3341 ft | 191 kts | 221° |
| 2026-05-05 01:31 | 33.91551 | -118.56335 | 3782 ft | 205 kts | 190° |
| 2026-05-05 01:31 | 33.90105 | -118.56544 | 4284 ft | 215 kts | 189° |
| 2026-05-05 01:32 | 33.88587 | -118.56796 | 4809 ft | 226 kts | 193° |
| 2026-05-05 01:32 | 33.86999 | -118.57075 | 5353 ft | 235 kts | 189° |
| 2026-05-05 01:32 | 33.85345 | -118.57284 | 5933 ft | 242 kts | 190° |
| 2026-05-05 01:32 | 33.83662 | -118.57596 | 6524 ft | 247 kts | 192° |
| 2026-05-05 01:33 | 33.81945 | -118.57911 | 7114 ft | 251 kts | 192° |
| 2026-05-05 01:33 | 33.80199 | -118.58206 | 7745 ft | 255 kts | 191° |
| 2026-05-05 01:33 | 33.78446 | -118.58533 | 8454 ft | 254 kts | 192° |
| 2026-05-05 01:33 | 33.76698 | -118.58867 | 9238 ft | 254 kts | 190° |
| 2026-05-05 01:34 | 33.75535 | -118.59066 | 9760 ft | 254 kts | 191° |
| 2026-05-05 01:34 | 33.73791 | -118.59405 | 10476 ft | 253 kts | 192° |
| 2026-05-05 01:34 | 33.72028 | -118.59762 | 10991 ft | 265 kts | 192° |
| 2026-05-05 01:34 | 33.70141 | -118.60112 | 11042 ft | 280 kts | 189° |
| 2026-05-05 01:35 | 33.67587 | -118.59614 | 11038 ft | 289 kts | 157° |
| 2026-05-05 01:35 | 33.66454 | -118.58701 | 11043 ft | 294 kts | 141° |
| 2026-05-05 01:35 | 33.65137 | -118.56804 | 11043 ft | 299 kts | 126° |
| 2026-05-05 01:35 | 33.64075 | -118.54642 | 11043 ft | 301 kts | 124° |
| 2026-05-05 01:36 | 33.62944 | -118.52531 | 11046 ft | 300 kts | 128° |
| 2026-05-05 01:36 | 33.61755 | -118.50470 | 11043 ft | 300 kts | 128° |
| 2026-05-05 01:36 | 33.60573 | -118.48441 | 11046 ft | 300 kts | 128° |
| 2026-05-05 01:36 | 33.59380 | -118.46389 | 11049 ft | 300 kts | 128° |
| 2026-05-05 01:37 | 33.58185 | -118.44331 | 11049 ft | 300 kts | 128° |
| 2026-05-05 01:37 | 33.56994 | -118.42277 | 11053 ft | 300 kts | 128° |
| 2026-05-05 01:37 | 33.55804 | -118.40224 | 11054 ft | 300 kts | 128° |
| 2026-05-05 01:37 | 33.54614 | -118.38170 | 11057 ft | 300 kts | 128° |
| 2026-05-05 01:38 | 33.53423 | -118.36112 | 11050 ft | 300 kts | 128° |
| 2026-05-05 01:38 | 33.52223 | -118.34048 | 11054 ft | 301 kts | 128° |
| 2026-05-05 01:38 | 33.51019 | -118.31979 | 11061 ft | 308 kts | 128° |
| 2026-05-05 01:38 | 33.49733 | -118.29789 | 11076 ft | 334 kts | 128° |
| 2026-05-05 01:39 | 33.48345 | -118.27444 | 11066 ft | 356 kts | 128° |
| 2026-05-05 01:39 | 33.46884 | -118.24983 | 11060 ft | 360 kts | 128° |
| 2026-05-05 01:39 | 33.45477 | -118.22602 | 11049 ft | 340 kts | 128° |
| 2026-05-05 01:39 | 33.44077 | -118.20235 | 11054 ft | 359 kts | 128° |
| 2026-05-05 01:40 | 33.42587 | -118.17733 | 11061 ft | 377 kts | 128° |
| 2026-05-05 01:40 | 33.41028 | -118.15129 | 11052 ft | 392 kts | 128° |
| 2026-05-05 01:40 | 33.39412 | -118.12438 | 11027 ft | 404 kts | 128° |
| 2026-05-05 01:40 | 33.37752 | -118.09678 | 11024 ft | 411 kts | 128° |
| 2026-05-05 01:41 | 33.36081 | -118.06898 | 11036 ft | 412 kts | 128° |
| 2026-05-05 01:41 | 33.34409 | -118.04110 | 11024 ft | 413 kts | 128° |
| 2026-05-05 01:41 | 33.32753 | -118.01351 | 11025 ft | 414 kts | 128° |
| 2026-05-05 01:41 | 33.31075 | -117.98551 | 11031 ft | 414 kts | 128° |
| 2026-05-05 01:42 | 33.29396 | -117.95749 | 11024 ft | 414 kts | 128° |
| 2026-05-05 01:42 | 33.27717 | -117.92947 | 11023 ft | 414 kts | 128° |
| 2026-05-05 01:42 | 33.26037 | -117.90142 | 11025 ft | 414 kts | 128° |
| 2026-05-05 01:42 | 33.24357 | -117.87343 | 11027 ft | 415 kts | 128° |
| 2026-05-05 01:43 | 33.22674 | -117.84537 | 11023 ft | 415 kts | 128° |
| 2026-05-05 01:43 | 33.21012 | -117.81721 | 11029 ft | 415 kts | 125° |
| 2026-05-05 01:43 | 33.19652 | -117.78713 | 11030 ft | 419 kts | 116° |
| 2026-05-05 01:43 | 33.18561 | -117.75475 | 11029 ft | 420 kts | 113° |
| 2026-05-05 01:44 | 33.17540 | -117.72271 | 10813 ft | 405 kts | 113° |
| 2026-05-05 01:44 | 33.16578 | -117.69162 | 9920 ft | 397 kts | 111° |
| 2026-05-05 01:44 | 33.15740 | -117.66007 | 8585 ft | 400 kts | 108° |
| 2026-05-05 01:44 | 33.14942 | -117.62842 | 7470 ft | 395 kts | 108° |
| 2026-05-05 01:45 | 33.14145 | -117.59737 | 6583 ft | 386 kts | 108° |
| 2026-05-05 01:45 | 33.13367 | -117.56755 | 6159 ft | 364 kts | 108° |
| 2026-05-05 01:45 | 33.12645 | -117.53976 | 6036 ft | 338 kts | 108° |
| 2026-05-05 01:45 | 33.11985 | -117.51403 | 6034 ft | 311 kts | 108° |
| 2026-05-05 01:46 | 33.11306 | -117.49100 | 6031 ft | 288 kts | 118° |
| 2026-05-05 01:46 | 33.10263 | -117.47105 | 6042 ft | 282 kts | 124° |
| 2026-05-05 01:46 | 33.09290 | -117.45060 | 6044 ft | 284 kts | 118° |
| 2026-05-05 01:46 | 33.08435 | -117.42928 | 6044 ft | 285 kts | 116° |
| 2026-05-05 01:47 | 33.07621 | -117.40838 | 6038 ft | 271 kts | 116° |
| 2026-05-05 01:47 | 33.06844 | -117.38830 | 6043 ft | 264 kts | 116° |
| 2026-05-05 01:47 | 33.06051 | -117.36862 | 6041 ft | 263 kts | 119° |
| 2026-05-05 01:47 | 33.05167 | -117.34947 | 6043 ft | 264 kts | 121° |
| 2026-05-05 01:48 | 33.04237 | -117.33063 | 6044 ft | 264 kts | 124° |
| 2026-05-05 01:48 | 33.03222 | -117.31239 | 6050 ft | 263 kts | 126° |
| 2026-05-05 01:48 | 33.02192 | -117.29432 | 6042 ft | 264 kts | 126° |
| 2026-05-05 01:48 | 33.01156 | -117.27625 | 6060 ft | 264 kts | 126° |
| 2026-05-05 01:49 | 33.00080 | -117.25859 | 6045 ft | 263 kts | 130° |
| 2026-05-05 01:49 | 32.98919 | -117.24237 | 6043 ft | 256 kts | 135° |
| 2026-05-05 01:49 | 32.97736 | -117.22740 | 6040 ft | 242 kts | 136° |
| 2026-05-05 01:49 | 32.96583 | -117.21298 | 6051 ft | 240 kts | 136° |
| 2026-05-05 01:50 | 32.95428 | -117.19856 | 6059 ft | 241 kts | 136° |
| 2026-05-05 01:50 | 32.94270 | -117.18418 | 6055 ft | 241 kts | 136° |
| 2026-05-05 01:50 | 32.93109 | -117.16982 | 6058 ft | 241 kts | 137° |
| 2026-05-05 01:50 | 32.91839 | -117.15707 | 6051 ft | 241 kts | 147° |
| 2026-05-05 01:51 | 32.90454 | -117.14572 | 6058 ft | 241 kts | 150° |
| 2026-05-05 01:51 | 32.89039 | -117.13506 | 6057 ft | 241 kts | 150° |
| 2026-05-05 01:51 | 32.87626 | -117.12450 | 6046 ft | 236 kts | 151° |
| 2026-05-05 01:51 | 32.86270 | -117.11431 | 6046 ft | 226 kts | 150° |
| 2026-05-05 01:52 | 32.84962 | -117.10450 | 6043 ft | 220 kts | 150° |
| 2026-05-05 01:52 | 32.83673 | -117.09473 | 6052 ft | 219 kts | 151° |
| 2026-05-05 01:52 | 32.82390 | -117.08496 | 6055 ft | 219 kts | 151° |
| 2026-05-05 01:52 | 32.81098 | -117.07551 | 6046 ft | 217 kts | 154° |
| 2026-05-05 01:53 | 32.79785 | -117.06676 | 6044 ft | 216 kts | 149° |
| 2026-05-05 01:53 | 32.78655 | -117.05494 | 6054 ft | 217 kts | 136° |
| 2026-05-05 01:53 | 32.77644 | -117.04160 | 6042 ft | 217 kts | 133° |
| 2026-05-05 01:53 | 32.76882 | -117.02626 | 6040 ft | 217 kts | 113° |
| 2026-05-05 01:54 | 32.76541 | -117.00888 | 6072 ft | 220 kts | 103° |
| 2026-05-05 01:54 | 32.76169 | -116.99121 | 5999 ft | 221 kts | 108° |
| 2026-05-05 01:54 | 32.75612 | -116.97421 | 6012 ft | 216 kts | 119° |
| 2026-05-05 01:54 | 32.74772 | -116.96055 | 6076 ft | 196 kts | 141° |
| 2026-05-05 01:55 | 32.73657 | -116.95315 | 6117 ft | 172 kts | 170° |
| 2026-05-05 01:55 | 32.72512 | -116.95205 | 6031 ft | 160 kts | 192° |
| 2026-05-05 01:55 | 32.71491 | -116.95534 | 6031 ft | 147 kts | 209° |
| 2026-05-05 01:55 | 32.70620 | -116.96086 | 5971 ft | 139 kts | 218° |
| 2026-05-05 01:56 | 32.69862 | -116.96781 | 5903 ft | 137 kts | 229° |
| 2026-05-05 01:56 | 32.69243 | -116.97698 | 5633 ft | 151 kts | 245° |
| 2026-05-05 01:56 | 32.69021 | -116.98946 | 5486 ft | 163 kts | 272° |
| 2026-05-05 01:56 | 32.69092 | -117.00365 | 5314 ft | 183 kts | 274° |
| 2026-05-05 01:57 | 32.69251 | -117.01949 | 5030 ft | 204 kts | 284° |
| 2026-05-05 01:57 | 32.69656 | -117.03644 | 4718 ft | 223 kts | 284° |
| 2026-05-05 01:57 | 32.70077 | -117.05480 | 4320 ft | 230 kts | 285° |
| 2026-05-05 01:57 | 32.70501 | -117.07223 | 3879 ft | 206 kts | 285° |
| 2026-05-05 01:58 | 32.70868 | -117.08756 | 3420 ft | 183 kts | 284° |
| 2026-05-05 01:58 | 32.71221 | -117.10146 | 2905 ft | 170 kts | 285° |
| 2026-05-05 01:58 | 32.71559 | -117.11453 | 2300 ft | 171 kts | 284° |
| 2026-05-05 01:58 | 32.71895 | -117.12879 | 1542 ft | 184 kts | 283° |
| 2026-05-05 01:59 | 32.72230 | -117.14363 | 950 ft | 184 kts | 284° |
| 2026-05-05 01:59 | 32.72583 | -117.15723 | 578 ft | 161 kts | 282° |
| 2026-05-05 01:59 | 32.72866 | -117.16943 | 257 ft | 149 kts | 282° |
| 2026-05-05 01:59 | 32.73141 | -117.18074 | 57 ft | 134 kts | 284° |
| 2026-05-05 02:00 | 32.73360 | -117.18985 | 29 ft | 74 kts | 286° |
| 2026-05-05 02:00 | 32.73491 | -117.19521 | 30 ft | 63 kts | 287° |
| 2026-05-05 02:00 | 32.73508 | -117.19840 | 31 ft | 30 kts | 250° |
| 2026-05-05 02:00 | 32.73500 | -117.19972 | 29 ft | 11 kts | 288° |